Time;durP1;ratioP1;P1;durP2;ratioP2;P2;SDS_P1;SDS_P2;PMS_P1;PMS_P2;Temp;Humidity;BMP_temperature;BMP_pressure;BME280_temperature;BME280_humidity;BME280_pressure;Samples;Min_cycle;Max_cycle;Signal;HPM_P1;HPM_P2
2023/03/31 00:02:30;;;;;;;;;;;;;;;7.58;81.15;99345.95;134325;1297;23185;-79
2023/03/31 00:05:40;;;;;;;;;;;;;;;7.55;81.26;99348.22;134328;1303;23249;-80
2023/03/31 00:08:40;;;;;;;;;;;;;;;7.49;81.08;99350.98;134327;1304;22470;-79
2023/03/31 00:12:01;;;;;;;;;;;;;;;7.44;81.09;99344.45;134326;1297;23075;-79
2023/03/31 00:15:02;;;;;;;;;;;;;;;7.41;81.22;99343.02;134305;1297;22519;-81
2023/03/31 00:18:03;;;;;;;;;;;;;;;7.41;81.44;99338.56;134334;1298;22504;-80
2023/03/31 00:21:08;;;;;;;;;;;;;;;7.40;81.46;99334.17;134312;1297;22433;-80
2023/03/31 00:24:17;;;;;;;;;;;;;;;7.37;81.43;99331.80;134318;1298;22466;-79
2023/03/31 00:27:18;;;;;;;;;;;;;;;7.33;81.31;99329.82;134322;1297;22428;-79
2023/03/31 00:30:21;;;;;;;;;;;;;;;7.27;81.29;99333.84;134308;1297;23257;-80
2023/03/31 00:33:33;;;;;;;;;;;;;;;;;;;;;
2023/03/31 00:36:46;;;;;;;;;;;;;;;7.17;81.23;99335.41;134318;1297;23146;-79
2023/03/31 00:39:56;;;;;;;;;;;;;;;7.12;81.41;99334.51;134325;1297;22488;-80
2023/03/31 00:42:56;;;;;;;;;;;;;;;7.09;81.47;99329.86;134301;1297;22437;-81
2023/03/31 00:46:16;;;;;;;;;;;;;;;7.08;81.49;99328.81;134049;1297;22498;-79
2023/03/31 00:49:21;;;;;;;;;;;;;;;7.04;81.66;99322.17;134132;1297;22446;-80
2023/03/31 00:52:29;;;;;;;;;;;;;;;7.01;81.61;99321.13;134128;1298;23253;-79
2023/03/31 00:55:34;;;;;;;;;;;;;;;6.98;81.45;99322.34;134134;1297;22460;-80
2023/03/31 00:58:42;;;;;;;;;;;;;;;6.93;81.53;99319.44;134178;1297;23188;-80
2023/03/31 01:01:45;;;;;;;;;;;;;;;6.94;81.79;99316.04;134153;1297;22464;-80
2023/03/31 01:04:53;;;;;;;;;;;;;;;6.94;81.79;99313.23;133997;1298;22484;-80
2023/03/31 01:07:55;;;;;;;;;;;;;;;6.92;81.61;99310.80;134120;1297;23267;-77
2023/03/31 01:11:03;;;;;;;;;;;;;;;6.89;81.79;99311.25;134140;1297;22442;-80
2023/03/31 01:14:03;;;;;;;;;;;;;;;6.89;81.79;99309.20;134119;1298;22486;-79
2023/03/31 01:17:08;;;;;;;;;;;;;;;6.85;81.31;99303.82;134139;1297;22451;-77
2023/03/31 01:20:18;;;;;;;;;;;;;;;6.80;81.58;99302.93;134138;1297;23639;-80
2023/03/31 01:23:24;;;;;;;;;;;;;;;6.75;81.41;99293.46;134115;1297;22529;-80
2023/03/31 01:26:30;;;;;;;;;;;;;;;6.69;81.88;99294.37;134139;1297;22474;-80
2023/03/31 01:29:40;;;;;;;;;;;;;;;6.70;82.03;99289.54;134138;1298;23170;-80
2023/03/31 01:33:15;;;;;;;;;;;;;;;;;;;;;
2023/03/31 01:36:35;;;;;;;;;;;;;;;6.70;82.22;99292.72;134140;1297;22465;-80
2023/03/31 01:39:57;;;;;;;;;;;;;;;6.68;82.14;99294.16;134156;1297;22914;-80
2023/03/31 01:43:24;;;;;;;;;;;;;;;6.65;82.18;99296.44;134155;1297;22433;-79
2023/03/31 01:46:34;;;;;;;;;;;;;;;6.63;82.01;99294.73;134186;1297;23219;-79
2023/03/31 01:49:49;;;;;;;;;;;;;;;6.59;82.17;99289.67;134160;1297;23194;-79
2023/03/31 01:53:15;;;;;;;;;;;;;;;6.58;82.18;99289.20;134121;1298;22402;-80
2023/03/31 01:56:22;;;;;;;;;;;;;;;6.57;82.16;99286.58;134154;1297;22497;-80
2023/03/31 01:59:31;;;;;;;;;;;;;;;6.57;82.33;99288.95;134160;1298;22426;-80
2023/03/31 02:02:37;;;;;;;;;;;;;;;6.57;82.27;99290.02;134155;1297;22475;-80
2023/03/31 02:05:43;;;;;;;;;;;;;;;6.56;82.31;99284.56;134088;1299;22424;-80
2023/03/31 02:09:07;;;;;;;;;;;;;;;6.56;82.40;99283.70;134105;1290;22509;-80
2023/03/31 02:12:10;;;;;;;;;;;;;;;6.58;82.24;99281.36;134171;1297;22448;-80
2023/03/31 02:15:14;;;;;;;;;;;;;;;6.57;82.13;99273.20;134136;1297;22439;-79
2023/03/31 02:18:30;;;;;;;;;;;;;;;;;;;;;
2023/03/31 02:21:32;;;;;;;;;;;;;;;6.54;82.00;99283.34;134179;1297;22470;-80
2023/03/31 02:24:36;;;;;;;;;;;;;;;6.53;82.05;99280.46;134158;1297;23294;-80
2023/03/31 02:27:52;;;;;;;;;;;;;;;;;;;;;
2023/03/31 02:30:55;;;;;;;;;;;;;;;6.51;82.31;99278.92;130144;1296;5403556;-77
2023/03/31 02:33:56;;;;;;;;;;;;;;;6.54;82.50;99276.09;133959;1297;22436;-80
2023/03/31 02:36:56;;;;;;;;;;;;;;;6.57;82.51;99270.92;134159;1297;22644;-80
2023/03/31 02:39:59;;;;;;;;;;;;;;;6.58;82.32;99265.02;133960;1298;22446;-80
2023/03/31 02:43:00;;;;;;;;;;;;;;;6.59;82.45;99264.33;133955;1297;22509;-80
2023/03/31 02:46:01;;;;;;;;;;;;;;;6.63;82.38;99262.23;134280;1297;23204;-81
2023/03/31 02:49:06;;;;;;;;;;;;;;;6.65;82.41;99259.10;134132;1299;22493;-80
2023/03/31 02:52:22;;;;;;;;;;;;;;;6.66;82.32;99262.20;134292;1298;22426;-81
2023/03/31 02:55:51;;;;;;;;;;;;;;;6.65;82.37;99253.67;134277;1297;23201;-80
2023/03/31 02:58:56;;;;;;;;;;;;;;;6.63;82.20;99248.74;134146;1300;22449;-80
2023/03/31 03:02:05;;;;;;;;;;;;;;;6.61;81.99;99244.98;134302;1298;22403;-80
2023/03/31 03:05:19;;;;;;;;;;;;;;;6.58;81.98;99243.71;134116;1297;22413;-80
2023/03/31 03:08:32;;;;;;;;;;;;;;;6.53;82.01;99239.88;134107;1295;22444;-80
2023/03/31 03:12:02;;;;;;;;;;;;;;;6.47;81.85;99239.10;134135;1298;22446;-80
2023/03/31 03:15:10;;;;;;;;;;;;;;;6.40;81.86;99242.87;134125;1298;23282;-80
2023/03/31 03:18:11;;;;;;;;;;;;;;;6.34;81.96;99236.05;134294;1297;22447;-80
2023/03/31 03:21:11;;;;;;;;;;;;;;;6.30;81.96;99238.80;134272;1298;22453;-79
2023/03/31 03:24:13;;;;;;;;;;;;;;;6.25;82.12;99240.50;134284;1297;22470;-80
2023/03/31 03:27:17;;;;;;;;;;;;;;;6.19;82.26;99240.61;134297;1297;22570;-79
2023/03/31 03:30:18;;;;;;;;;;;;;;;6.16;82.38;99240.02;134194;1298;22454;-80
2023/03/31 03:33:18;;;;;;;;;;;;;;;6.14;82.43;99239.09;134195;1297;22447;-80
2023/03/31 03:36:22;;;;;;;;;;;;;;;6.11;82.58;99238.34;134319;1298;23201;-79
2023/03/31 03:39:26;;;;;;;;;;;;;;;6.05;82.41;99237.82;134287;1297;22590;-80
2023/03/31 03:42:26;;;;;;;;;;;;;;;5.96;82.01;99232.67;134274;1298;22520;-81
2023/03/31 03:45:27;;;;;;;;;;;;;;;5.91;82.87;99232.09;134159;1297;22490;-78
2023/03/31 03:48:27;;;;;;;;;;;;;;;5.89;83.05;99229.35;134193;1297;22422;-80
2023/03/31 03:51:28;;;;;;;;;;;;;;;5.87;83.10;99225.36;134178;1298;22434;-83
2023/03/31 03:54:29;;;;;;;;;;;;;;;5.84;83.20;99221.36;134135;1298;23122;-82
2023/03/31 03:57:29;;;;;;;;;;;;;;;5.79;83.50;99216.73;134204;1297;22585;-84
2023/03/31 04:00:30;;;;;;;;;;;;;;;5.75;83.61;99217.52;134155;1297;22473;-83
2023/03/31 04:03:30;;;;;;;;;;;;;;;5.73;83.32;99212.86;134160;1298;23609;-84
2023/03/31 04:06:31;;;;;;;;;;;;;;;5.71;83.36;99211.66;134169;1298;22459;-85
2023/03/31 04:09:35;;;;;;;;;;;;;;;5.70;83.56;99208.83;134151;1298;22976;-83
2023/03/31 04:12:36;;;;;;;;;;;;;;;5.69;83.52;99207.38;134140;1297;22928;-82
2023/03/31 04:15:37;;;;;;;;;;;;;;;5.68;83.43;99206.41;134126;1298;22488;-84
2023/03/31 04:18:47;;;;;;;;;;;;;;;5.67;83.32;99203.69;134194;1297;22452;-83
2023/03/31 04:21:49;;;;;;;;;;;;;;;5.66;83.58;99202.52;134134;1298;22464;-83
2023/03/31 04:24:51;;;;;;;;;;;;;;;5.63;83.37;99197.01;134143;1297;22490;-84
2023/03/31 04:27:54;;;;;;;;;;;;;;;5.60;83.17;99193.64;134205;1298;22448;-83
2023/03/31 04:30:58;;;;;;;;;;;;;;;5.57;83.27;99186.04;134141;1297;22483;-83
2023/03/31 04:34:01;;;;;;;;;;;;;;;5.58;83.52;99191.40;134159;1298;22513;-83
2023/03/31 04:37:02;;;;;;;;;;;;;;;5.57;83.51;99184.35;134097;1298;22444;-86
2023/03/31 04:40:22;;;;;;;;;;;;;;;;;;;;;
2023/03/31 04:43:25;;;;;;;;;;;;;;;5.56;83.40;99179.65;134187;1298;22428;-78
2023/03/31 04:46:33;;;;;;;;;;;;;;;5.55;83.37;99181.36;134339;1297;22458;-83
2023/03/31 04:49:45;;;;;;;;;;;;;;;;;;;;;
2023/03/31 04:52:46;;;;;;;;;;;;;;;5.60;83.32;99180.89;134273;1298;22492;-88
2023/03/31 04:55:47;;;;;;;;;;;;;;;5.64;83.25;99180.27;134262;1294;22537;-78
2023/03/31 04:58:48;;;;;;;;;;;;;;;5.72;83.55;99174.21;134257;1301;22431;-82
2023/03/31 05:01:52;;;;;;;;;;;;;;;5.85;83.65;99163.34;134309;1298;23147;-79
2023/03/31 05:05:23;;;;;;;;;;;;;;;;;;;;;
2023/03/31 05:08:26;;;;;;;;;;;;;;;6.12;83.41;99159.34;134283;1295;23151;-82
2023/03/31 05:11:27;;;;;;;;;;;;;;;6.12;83.19;99154.07;134268;1304;22433;-79
2023/03/31 05:14:28;;;;;;;;;;;;;;;6.13;83.36;99148.90;134278;1297;22427;-81
2023/03/31 05:17:59;;;;;;;;;;;;;;;6.15;83.65;99151.15;134179;1297;23250;-82
2023/03/31 05:21:15;;;;;;;;;;;;;;;6.22;83.65;99151.45;134239;1296;22416;-81
2023/03/31 05:24:16;;;;;;;;;;;;;;;6.59;84.18;99152.44;134216;1299;23041;-81
2023/03/31 05:27:27;;;;;;;;;;;;;;;;;;;;;
2023/03/31 05:30:30;;;;;;;;;;;;;;;7.50;83.34;99146.68;134219;1295;22582;-81
2023/03/31 05:33:32;;;;;;;;;;;;;;;7.60;82.92;99150.11;134252;1298;22453;-82
2023/03/31 05:36:41;;;;;;;;;;;;;;;7.69;82.61;99153.80;134298;1298;22516;-81
2023/03/31 05:39:55;;;;;;;;;;;;;;;;;;;;;
2023/03/31 05:43:15;;;;;;;;;;;;;;;7.79;82.27;99151.05;134301;1297;24477;-81
2023/03/31 05:46:19;;;;;;;;;;;;;;;7.77;81.88;99149.02;134262;1298;22500;-80
2023/03/31 05:49:49;;;;;;;;;;;;;;;7.71;81.75;99140.98;134266;1297;22438;-81
2023/03/31 05:52:50;;;;;;;;;;;;;;;7.70;81.68;99145.02;134111;1301;23401;-81
2023/03/31 05:56:01;;;;;;;;;;;;;;;7.68;81.62;99144.50;134294;1304;22458;-81
2023/03/31 05:59:05;;;;;;;;;;;;;;;7.99;82.13;99146.33;134247;1298;23136;-81
2023/03/31 06:02:11;;;;;;;;;;;;;;;8.66;82.14;99141.13;134279;1301;24856;-82
2023/03/31 06:05:12;;;;;;;;;;;;;;;9.28;81.35;99134.52;134172;1298;22451;-81
2023/03/31 06:08:19;;;;;;;;;;;;;;;9.93;81.39;99132.59;134268;1301;23223;-82
2023/03/31 06:11:21;;;;;;;;;;;;;;;10.62;80.88;99131.94;134277;1298;22444;-82
2023/03/31 06:14:28;;;;;;;;;;;;;;;11.38;80.40;99126.39;134107;1296;22485;-81
2023/03/31 06:17:29;;;;;;;;;;;;;;;11.98;78.53;99120.20;134290;1298;23260;-81
2023/03/31 06:20:31;;;;;;;;;;;;;;;12.07;77.34;99115.09;134338;1297;22476;-81
2023/03/31 06:23:33;;;;;;;;;;;;;;;11.83;75.91;99114.05;134313;1298;22458;-80
2023/03/31 06:26:37;;;;;;;;;;;;;;;11.59;76.11;99111.54;134305;1298;22543;-79
2023/03/31 06:29:58;;;;;;;;;;;;;;;11.41;75.81;99112.35;134273;1298;22462;-82
2023/03/31 06:33:16;;;;;;;;;;;;;;;;;;;;;
2023/03/31 06:36:21;;;;;;;;;;;;;;;11.17;75.80;99108.66;134308;1298;22484;-81
2023/03/31 06:39:21;;;;;;;;;;;;;;;11.15;75.57;99103.30;134299;1296;22447;-81
2023/03/31 06:42:24;;;;;;;;;;;;;;;11.15;75.70;99101.71;134313;1298;22485;-80
2023/03/31 06:45:28;;;;;;;;;;;;;;;11.15;75.54;99104.54;134347;1297;23255;-81
2023/03/31 06:48:40;;;;;;;;;;;;;;;11.11;75.37;99107.40;134306;1298;22464;-80
2023/03/31 06:52:02;;;;;;;;;;;;;;;;;;;;;
2023/03/31 06:55:28;;;;;;;;;;;;;;;10.94;74.86;99100.99;134271;1299;22485;-81
2023/03/31 06:58:28;;;;;;;;;;;;;;;10.85;74.91;99098.63;134158;1297;22459;-81
2023/03/31 07:01:41;;;;;;;;;;;;;;;;;;;;;
2023/03/31 07:05:42;;;;;;;;;;;;;;;10.81;75.23;99098.58;134297;1298;22535;-81
2023/03/31 07:08:47;;;;;;;;;;;;;;;10.86;75.27;99094.31;134321;1298;22473;-81
2023/03/31 07:12:10;;;;;;;;;;;;;;;;;;;;;
2023/03/31 07:15:34;;;;;;;;;;;;;;;10.99;75.33;99089.61;134295;1301;25271;-81
2023/03/31 07:18:40;;;;;;;;;;;;;;;11.05;75.10;99082.62;134334;1298;22448;-81
2023/03/31 07:22:02;;;;;;;;;;;;;;;11.16;75.07;99080.02;134321;1299;22505;-81
2023/03/31 07:25:05;;;;;;;;;;;;;;;11.30;75.03;99083.40;134278;1301;22542;-80
2023/03/31 07:28:05;;;;;;;;;;;;;;;11.40;74.75;99080.80;134291;1296;22446;-80
2023/03/31 07:31:32;;;;;;;;;;;;;;;11.47;74.36;99077.81;134292;1298;22580;-80
2023/03/31 07:34:45;;;;;;;;;;;;;;;11.48;73.73;99075.19;134082;1296;22609;-81
2023/03/31 07:37:54;;;;;;;;;;;;;;;11.52;74.05;99072.08;134302;1303;23195;-81
2023/03/31 07:41:02;;;;;;;;;;;;;;;11.55;73.52;99070.45;134314;1298;22506;-81
2023/03/31 07:44:03;;;;;;;;;;;;;;;11.53;73.58;99064.27;134347;1298;22527;-82
2023/03/31 07:47:16;;;;;;;;;;;;;;;11.57;73.61;99062.52;134278;1298;23309;-82
2023/03/31 07:50:30;;;;;;;;;;;;;;;;;;;;;
2023/03/31 07:53:33;;;;;;;;;;;;;;;11.69;72.96;99051.36;134069;1301;22571;-82
2023/03/31 07:56:39;;;;;;;;;;;;;;;11.71;72.71;99041.73;134296;1301;23368;-81
2023/03/31 07:59:40;;;;;;;;;;;;;;;11.72;72.44;99037.94;134349;1293;23116;-81
2023/03/31 08:02:47;;;;;;;;;;;;;;;11.68;72.39;99037.02;134354;1299;22567;-82
2023/03/31 08:05:51;;;;;;;;;;;;;;;11.64;72.61;99035.86;134308;1298;22482;-82
2023/03/31 08:09:03;;;;;;;;;;;;;;;11.68;72.88;99031.73;134283;1298;22545;-82
2023/03/31 08:12:09;;;;;;;;;;;;;;;11.71;72.43;99026.02;134327;1299;23083;-81
2023/03/31 08:15:10;;;;;;;;;;;;;;;11.78;72.77;99016.11;134368;1297;22484;-81
2023/03/31 08:18:11;;;;;;;;;;;;;;;11.88;72.36;99009.48;134100;1298;22553;-82
2023/03/31 08:21:11;;;;;;;;;;;;;;;11.95;72.50;98998.17;134327;1301;22455;-82
2023/03/31 08:24:13;;;;;;;;;;;;;;;12.00;72.15;98992.95;134339;1302;23160;-81
2023/03/31 08:27:18;;;;;;;;;;;;;;;12.12;72.35;98996.63;134328;1302;22462;-80
2023/03/31 08:30:19;;;;;;;;;;;;;;;12.59;72.14;98989.63;134350;1301;22547;-82
2023/03/31 08:33:20;;;;;;;;;;;;;;;13.21;71.03;98983.52;134317;1296;22433;-81
2023/03/31 08:36:21;;;;;;;;;;;;;;;13.78;70.84;98978.99;134322;1297;22456;-82
2023/03/31 08:39:22;;;;;;;;;;;;;;;14.24;69.01;98979.52;134311;1297;22451;-82
2023/03/31 08:42:37;;;;;;;;;;;;;;;14.61;68.84;98978.90;134329;1289;23192;-81
2023/03/31 08:45:45;;;;;;;;;;;;;;;14.91;67.83;98972.21;134318;1296;22520;-81
2023/03/31 08:48:48;;;;;;;;;;;;;;;14.83;67.13;98971.96;134350;1296;23177;-82
2023/03/31 08:52:12;;;;;;;;;;;;;;;14.80;66.54;98966.98;134223;1299;22423;-82
2023/03/31 08:55:41;;;;;;;;;;;;;;;14.75;66.42;98958.46;134324;1296;22595;-81
2023/03/31 08:58:47;;;;;;;;;;;;;;;14.97;66.17;98956.89;134309;1291;22478;-82
2023/03/31 09:01:59;;;;;;;;;;;;;;;15.28;65.90;98949.20;134237;1298;22456;-81
2023/03/31 09:05:21;;;;;;;;;;;;;;;15.58;65.33;98942.30;134312;1298;22445;-82
2023/03/31 09:08:36;;;;;;;;;;;;;;;15.72;64.59;98942.84;134347;1298;22449;-79
2023/03/31 09:11:46;;;;;;;;;;;;;;;15.88;64.26;98941.38;134222;1298;23323;-82
2023/03/31 09:15:03;;;;;;;;;;;;;;;16.10;63.65;98935.55;134198;1298;22457;-81
2023/03/31 09:18:17;;;;;;;;;;;;;;;16.33;63.69;98928.78;134331;1296;22445;-81
2023/03/31 09:21:30;;;;;;;;;;;;;;;16.53;62.28;98920.35;134309;1303;22537;-82
2023/03/31 09:24:35;;;;;;;;;;;;;;;16.61;62.22;98916.84;134328;1295;22436;-82
2023/03/31 09:27:41;;;;;;;;;;;;;;;16.51;60.29;98915.60;134314;1298;22416;-81
2023/03/31 09:31:13;;;;;;;;;;;;;;;16.38;59.78;98911.88;134294;1298;22477;-82
2023/03/31 09:34:15;;;;;;;;;;;;;;;16.46;60.17;98909.92;134287;1298;22480;-81
2023/03/31 09:37:36;;;;;;;;;;;;;;;16.58;60.29;98903.12;134354;1297;22461;-81
2023/03/31 09:40:59;;;;;;;;;;;;;;;16.84;59.42;98889.59;134369;1303;22498;-81
2023/03/31 09:44:26;;;;;;;;;;;;;;;;;;;;;
2023/03/31 09:47:43;;;;;;;;;;;;;;;16.99;58.04;98883.20;134309;1298;23685;-81
2023/03/31 09:50:47;;;;;;;;;;;;;;;16.70;58.13;98878.84;134373;1296;22435;-82
2023/03/31 09:53:51;;;;;;;;;;;;;;;16.40;58.32;98877.25;134332;1297;22496;-82
2023/03/31 09:57:02;;;;;;;;;;;;;;;16.15;58.56;98882.26;134318;1297;22918;-80
2023/03/31 10:00:20;;;;;;;;;;;;;;;15.99;58.51;98884.83;134326;1297;22468;-82
2023/03/31 10:03:21;;;;;;;;;;;;;;;16.03;58.70;98870.10;134322;1297;22458;-81
2023/03/31 10:06:25;;;;;;;;;;;;;;;16.08;58.08;98865.45;134335;1296;22449;-81
2023/03/31 10:09:32;;;;;;;;;;;;;;;16.00;57.90;98863.51;134325;1296;22440;-80
2023/03/31 10:12:57;;;;;;;;;;;;;;;15.88;57.77;98856.27;134271;1298;23736;-82
2023/03/31 10:16:07;;;;;;;;;;;;;;;15.67;57.44;98849.48;134330;1297;23100;-81
2023/03/31 10:19:25;;;;;;;;;;;;;;;15.47;57.72;98844.12;134303;1298;22433;-81
2023/03/31 10:22:30;;;;;;;;;;;;;;;15.26;57.67;98842.16;134196;1302;22470;-81
2023/03/31 10:25:32;;;;;;;;;;;;;;;15.01;58.29;98842.36;134330;1298;22444;-81
2023/03/31 10:28:34;;;;;;;;;;;;;;;14.97;58.85;98839.82;134328;1303;22461;-81
2023/03/31 10:31:44;;;;;;;;;;;;;;;14.99;58.94;98833.77;134336;1296;22444;-81
2023/03/31 10:34:47;;;;;;;;;;;;;;;15.04;59.06;98834.27;134336;1298;22476;-81
2023/03/31 10:37:52;;;;;;;;;;;;;;;15.07;59.41;98833.40;134319;1298;22484;-80
2023/03/31 10:40:54;;;;;;;;;;;;;;;15.11;59.19;98825.00;134334;1282;22462;-80
2023/03/31 10:43:56;;;;;;;;;;;;;;;15.12;59.09;98814.30;134361;1297;22458;-81
2023/03/31 10:47:03;;;;;;;;;;;;;;;15.12;59.34;98806.37;134337;1296;22489;-81
2023/03/31 10:50:04;;;;;;;;;;;;;;;15.18;59.45;98808.35;134334;1297;23182;-81
2023/03/31 10:53:09;;;;;;;;;;;;;;;15.14;59.45;98801.52;134298;1298;23250;-80
2023/03/31 10:56:16;;;;;;;;;;;;;;;15.07;59.64;98800.41;134340;1297;22443;-81
2023/03/31 10:59:20;;;;;;;;;;;;;;;15.07;59.91;98798.55;134349;1297;22425;-81
2023/03/31 11:02:27;;;;;;;;;;;;;;;15.08;59.65;98797.77;134353;1297;22455;-80
2023/03/31 11:05:27;;;;;;;;;;;;;;;15.11;59.97;98789.51;134334;1291;23156;-80
2023/03/31 11:08:40;;;;;;;;;;;;;;;15.10;59.52;98783.46;134309;1298;23630;-80
2023/03/31 11:11:49;;;;;;;;;;;;;;;14.98;59.53;98780.16;134300;1295;23234;-80
2023/03/31 11:14:59;;;;;;;;;;;;;;;14.89;59.81;98779.55;134302;1304;22502;-81
2023/03/31 11:18:15;;;;;;;;;;;;;;;14.88;60.20;98776.31;134357;1296;22414;-80
2023/03/31 11:21:25;;;;;;;;;;;;;;;14.88;60.31;98771.83;134324;1301;22521;-80
2023/03/31 11:24:31;;;;;;;;;;;;;;;14.86;60.23;98768.74;134323;1297;22464;-80
2023/03/31 11:28:01;;;;;;;;;;;;;;;14.79;60.36;98766.73;134350;1297;22447;-81
2023/03/31 11:31:11;;;;;;;;;;;;;;;14.75;60.20;98751.64;134344;1297;22449;-81
2023/03/31 11:34:15;;;;;;;;;;;;;;;14.82;59.98;98744.18;134352;1299;22506;-80
2023/03/31 11:37:36;;;;;;;;;;;;;;;15.04;59.65;98739.66;134312;1303;22459;-80
2023/03/31 11:40:55;;;;;;;;;;;;;;;15.49;59.98;98724.70;134362;1296;22544;-80
2023/03/31 11:44:02;;;;;;;;;;;;;;;16.10;58.72;98712.81;134333;1296;22464;-80
2023/03/31 11:47:12;;;;;;;;;;;;;;;16.45;57.33;98702.75;134335;1296;22463;-80
2023/03/31 11:50:19;;;;;;;;;;;;;;;16.53;57.20;98694.02;134200;1295;22529;-80
2023/03/31 11:53:26;;;;;;;;;;;;;;;16.61;56.77;98685.26;134346;1291;22515;-80
2023/03/31 11:56:32;;;;;;;;;;;;;;;16.63;56.55;98680.58;134207;1298;23166;-80
2023/03/31 11:59:33;;;;;;;;;;;;;;;16.67;56.78;98674.45;134062;1298;22457;-79
2023/03/31 12:02:45;;;;;;;;;;;;;;;16.65;55.92;98671.36;134347;1298;22421;-80
2023/03/31 12:06:23;;;;;;;;;;;;;;;16.49;56.10;98670.01;134370;1297;22493;-81
2023/03/31 12:09:26;;;;;;;;;;;;;;;16.28;55.66;98668.43;134352;1296;22439;-78
2023/03/31 12:12:29;;;;;;;;;;;;;;;16.01;55.78;98675.45;134335;1296;25234;-80
2023/03/31 12:15:41;;;;;;;;;;;;;;;15.79;56.23;98667.58;134348;1296;22431;-80
2023/03/31 12:18:48;;;;;;;;;;;;;;;15.67;56.59;98663.88;134346;1296;22449;-79
2023/03/31 12:21:52;;;;;;;;;;;;;;;15.64;57.02;98661.34;134357;1296;22452;-79
2023/03/31 12:24:53;;;;;;;;;;;;;;;15.61;56.69;98652.15;134348;1297;22434;-81
2023/03/31 12:27:55;;;;;;;;;;;;;;;15.54;56.62;98643.12;134359;1296;22481;-80
2023/03/31 12:30:56;;;;;;;;;;;;;;;15.47;57.18;98637.73;134350;1296;22444;-80
2023/03/31 12:34:02;;;;;;;;;;;;;;;15.43;57.24;98633.73;134363;1296;22465;-80
2023/03/31 12:37:26;;;;;;;;;;;;;;;15.38;57.27;98632.46;134347;1296;24411;-80
2023/03/31 12:40:42;;;;;;;;;;;;;;;15.31;57.19;98625.94;134233;1301;22484;-80
2023/03/31 12:44:12;;;;;;;;;;;;;;;15.16;57.18;98631.48;134332;1297;22495;-81
2023/03/31 12:47:20;;;;;;;;;;;;;;;15.01;57.35;98624.36;134327;1296;22429;-80
2023/03/31 12:50:38;;;;;;;;;;;;;;;14.98;57.59;98622.09;134356;1296;22472;-81
2023/03/31 12:53:39;;;;;;;;;;;;;;;14.93;58.10;98613.28;134353;1297;23168;-79
2023/03/31 12:56:58;;;;;;;;;;;;;;;14.85;58.59;98611.37;134351;1297;22446;-80
2023/03/31 13:00:07;;;;;;;;;;;;;;;14.74;59.00;98608.92;134409;1297;22449;-80
2023/03/31 13:03:28;;;;;;;;;;;;;;;14.69;59.33;98608.17;134375;1295;22519;-79
2023/03/31 13:06:29;;;;;;;;;;;;;;;14.81;59.52;98596.44;134345;1297;22455;-80
2023/03/31 13:09:33;;;;;;;;;;;;;;;14.95;59.61;98591.27;134331;1297;22433;-80
2023/03/31 13:12:34;;;;;;;;;;;;;;;15.11;59.30;98585.58;134325;1297;22458;-79
2023/03/31 13:15:35;;;;;;;;;;;;;;;15.19;59.19;98580.52;134335;1297;22424;-80
2023/03/31 13:18:36;;;;;;;;;;;;;;;15.21;59.14;98580.70;134331;1297;22507;-80
2023/03/31 13:21:56;;;;;;;;;;;;;;;15.14;59.03;98576.88;134338;1296;22530;-81
2023/03/31 13:25:17;;;;;;;;;;;;;;;15.02;58.88;98572.20;134338;1297;22452;-80
2023/03/31 13:28:32;;;;;;;;;;;;;;;14.89;59.17;98564.10;134249;1295;22487;-81
2023/03/31 13:31:52;;;;;;;;;;;;;;;14.75;59.35;98565.86;134358;1296;22534;-80
2023/03/31 13:35:12;;;;;;;;;;;;;;;14.58;59.42;98559.27;134347;1296;23163;-79
2023/03/31 13:38:21;;;;;;;;;;;;;;;14.44;59.49;98556.81;134319;1296;22443;-80
2023/03/31 13:41:31;;;;;;;;;;;;;;;14.27;59.95;98553.15;134339;1297;22457;-81
2023/03/31 13:44:32;;;;;;;;;;;;;;;14.08;60.51;98548.86;134336;1296;22538;-80
2023/03/31 13:47:45;;;;;;;;;;;;;;;13.89;61.70;98547.10;134369;1296;22476;-81
2023/03/31 13:51:14;;;;;;;;;;;;;;;;;;;;;
2023/03/31 13:54:39;;;;;;;;;;;;;;;13.41;64.43;98550.48;134339;1297;22456;-81
2023/03/31 13:58:02;;;;;;;;;;;;;;;13.18;65.14;98549.35;134367;1296;22633;-82
2023/03/31 14:01:20;;;;;;;;;;;;;;;12.98;66.01;98544.93;134088;1298;22435;-82
2023/03/31 14:05:25;;;;;;;;;;;;;;;12.89;66.32;98540.52;134362;1298;22418;-82
2023/03/31 14:08:55;;;;;;;;;;;;;;;12.83;66.53;98533.04;134394;1296;22450;-83
2023/03/31 14:11:59;;;;;;;;;;;;;;;12.82;67.07;98527.16;134359;1301;22473;-82
2023/03/31 14:15:03;;;;;;;;;;;;;;;12.78;67.41;98517.94;134360;1296;23627;-82
2023/03/31 14:18:05;;;;;;;;;;;;;;;12.72;68.02;98513.08;134334;1297;23302;-82
2023/03/31 14:21:24;;;;;;;;;;;;;;;12.63;68.60;98508.67;134405;1296;22443;-82
2023/03/31 14:24:28;;;;;;;;;;;;;;;12.51;69.72;98511.27;134380;1298;22449;-82
2023/03/31 14:27:53;;;;;;;;;;;;;;;12.39;70.72;98505.40;134234;1298;22524;-82
2023/03/31 14:31:20;;;;;;;;;;;;;;;12.24;72.24;98500.98;130322;1296;5390207;-81
2023/03/31 14:34:36;;;;;;;;;;;;;;;12.05;72.81;98494.77;134321;1295;22543;-83
2023/03/31 14:37:40;;;;;;;;;;;;;;;11.94;72.93;98486.55;134370;1298;23238;-81
2023/03/31 14:40:48;;;;;;;;;;;;;;;11.88;72.91;98483.16;134365;1298;22450;-83
2023/03/31 14:43:50;;;;;;;;;;;;;;;11.78;73.64;98477.81;134247;1297;22499;-83
2023/03/31 14:46:53;;;;;;;;;;;;;;;11.67;74.02;98472.48;134360;1298;22454;-82
2023/03/31 14:50:23;;;;;;;;;;;;;;;;;;;;;
2023/03/31 14:54:24;;;;;;;;;;;;;;;11.43;76.21;98459.38;134341;1297;23193;-81
2023/03/31 14:57:43;;;;;;;;;;;;;;;;;;;;;
2023/03/31 15:01:00;;;;;;;;;;;;;;;11.28;76.59;98451.94;134312;1298;22484;-82
2023/03/31 15:04:21;;;;;;;;;;;;;;;11.22;77.49;98446.27;134398;1296;23138;-82
2023/03/31 15:07:46;;;;;;;;;;;;;;;11.15;78.40;98442.10;134372;1296;23615;-82
2023/03/31 15:10:57;;;;;;;;;;;;;;;11.09;78.67;98439.35;134371;1296;22445;-82
2023/03/31 15:14:18;;;;;;;;;;;;;;;11.07;79.18;98433.16;134380;1296;22461;-81
2023/03/31 15:17:36;;;;;;;;;;;;;;;11.08;79.32;98427.31;134390;1294;22410;-81
2023/03/31 15:20:40;;;;;;;;;;;;;;;11.12;79.86;98423.91;134406;1297;23272;-82
2023/03/31 15:23:42;;;;;;;;;;;;;;;11.15;80.16;98418.37;134414;1296;22409;-82
2023/03/31 15:26:49;;;;;;;;;;;;;;;11.21;80.07;98414.98;134385;1296;22539;-81
2023/03/31 15:29:52;;;;;;;;;;;;;;;11.29;80.15;98411.15;134376;1297;22466;-78
2023/03/31 15:32:53;;;;;;;;;;;;;;;11.32;80.37;98411.83;134362;1298;22444;-81
2023/03/31 15:35:56;;;;;;;;;;;;;;;11.32;80.38;98414.28;134412;1295;22463;-76
2023/03/31 15:39:05;;;;;;;;;;;;;;;11.31;80.42;98411.11;134422;1297;23115;-77
2023/03/31 15:42:06;;;;;;;;;;;;;;;11.29;80.49;98414.02;134402;1296;22528;-80
2023/03/31 15:45:19;;;;;;;;;;;;;;;11.26;81.15;98408.97;134137;1298;22448;-82
2023/03/31 15:48:32;;;;;;;;;;;;;;;11.23;80.99;98408.29;134328;1297;22506;-83
2023/03/31 15:51:36;;;;;;;;;;;;;;;11.21;81.46;98402.86;134314;1296;22596;-83
2023/03/31 15:54:41;;;;;;;;;;;;;;;11.19;81.71;98402.80;134328;1298;22499;-81
2023/03/31 15:57:43;;;;;;;;;;;;;;;11.19;81.14;98400.09;134123;1298;22495;-83
2023/03/31 16:00:51;;;;;;;;;;;;;;;11.21;80.99;98395.44;134375;1304;23187;-87
2023/03/31 16:03:53;;;;;;;;;;;;;;;11.22;81.12;98399.15;134344;1297;22440;-85
2023/03/31 16:07:00;;;;;;;;;;;;;;;11.25;81.08;98387.45;134338;1297;22504;-85
2023/03/31 16:10:04;;;;;;;;;;;;;;;11.26;80.84;98389.45;134335;1297;22479;-85
2023/03/31 16:13:07;;;;;;;;;;;;;;;11.26;80.70;98390.55;134341;1297;22435;-86
2023/03/31 16:16:18;;;;;;;;;;;;;;;11.25;80.43;98389.94;134337;1295;23235;-85
2023/03/31 16:19:24;;;;;;;;;;;;;;;11.24;80.48;98388.35;134314;1297;24211;-84
2023/03/31 16:22:29;;;;;;;;;;;;;;;11.22;80.46;98384.36;134343;1297;22442;-84
2023/03/31 16:25:30;;;;;;;;;;;;;;;11.21;80.35;98385.51;134249;1304;22472;-86
2023/03/31 16:28:33;;;;;;;;;;;;;;;11.19;80.37;98385.24;134362;1296;22440;-86
2023/03/31 16:31:38;;;;;;;;;;;;;;;11.17;80.39;98385.65;134357;1298;22440;-86
2023/03/31 16:34:55;;;;;;;;;;;;;;;11.16;80.16;98390.16;134348;1297;22524;-85
2023/03/31 16:38:02;;;;;;;;;;;;;;;11.13;80.24;98388.05;134342;1304;22441;-86
2023/03/31 16:41:14;;;;;;;;;;;;;;;11.08;80.28;98381.66;134359;1297;22458;-89
2023/03/31 16:44:35;;;;;;;;;;;;;;;11.03;80.18;98378.41;134356;1297;22544;-85